Time;durP1;ratioP1;P1;durP2;ratioP2;P2;SDS_P1;SDS_P2;PMS_P1;PMS_P2;Temp;Humidity;BMP_temperature;BMP_pressure;BME280_temperature;BME280_humidity;BME280_pressure;Samples;Min_cycle;Max_cycle;Signal;HPM_P1;HPM_P2
2021/10/20 00:02:17;;;;;;;3.00;2.22;;;11.90;94.00;;;;;;5020709;28;20111;-69
2021/10/20 00:04:43;;;;;;;2.20;2.00;;;11.90;93.70;;;;;;5029668;28;20040;-69
2021/10/20 00:07:08;;;;;;;3.05;2.35;;;11.90;93.70;;;;;;5030313;28;20390;-70
2021/10/20 00:09:34;;;;;;;2.30;2.10;;;11.80;93.70;;;;;;5028830;28;20033;-69
2021/10/20 00:11:59;;;;;;;2.60;2.20;;;11.80;93.70;;;;;;5026475;28;20187;-69
2021/10/20 00:14:26;;;;;;;2.40;2.20;;;11.80;93.70;;;;;;5026649;28;20041;-69
2021/10/20 00:16:51;;;;;;;2.88;2.42;;;11.80;93.70;;;;;;5030730;28;20034;-69
2021/10/20 00:19:17;;;;;;;2.80;2.20;;;11.70;93.70;;;;;;5030882;28;20033;-69
2021/10/20 00:21:43;;;;;;;2.33;2.13;;;11.70;93.70;;;;;;5031174;28;20021;-69
2021/10/20 00:24:09;;;;;;;2.20;2.00;;;11.60;93.70;;;;;;5028968;28;20100;-69
2021/10/20 00:26:34;;;;;;;2.60;2.40;;;11.60;93.70;;;;;;5030401;28;20470;-68
2021/10/20 00:29:00;;;;;;;3.05;2.72;;;11.50;93.70;;;;;;5024673;28;20038;-68
2021/10/20 00:31:26;;;;;;;4.20;2.40;;;11.50;93.90;;;;;;5024962;28;20478;-69
2021/10/20 00:33:51;;;;;;;6.18;2.97;;;11.50;93.80;;;;;;5029800;28;20030;-69
2021/10/20 00:36:17;;;;;;;3.65;2.78;;;11.40;93.80;;;;;;5030666;28;20393;-69
2021/10/20 00:38:44;;;;;;;4.97;3.05;;;11.30;93.80;;;;;;5030639;28;20025;-68
2021/10/20 00:41:09;;;;;;;3.80;3.00;;;11.30;93.90;;;;;;5030402;28;20029;-69
2021/10/20 00:43:35;;;;;;;4.85;3.05;;;11.30;93.90;;;;;;5012849;28;20025;-69
2021/10/20 00:46:01;;;;;;;2.97;2.70;;;11.30;93.90;;;;;;5028067;28;20698;-68
2021/10/20 00:48:26;;;;;;;3.78;3.03;;;11.30;94.00;;;;;;5028618;28;20623;-68
2021/10/20 00:50:52;;;;;;;3.47;2.90;;;11.20;94.00;;;;;;5030416;28;20033;-69
2021/10/20 00:53:18;;;;;;;3.90;3.38;;;11.20;94.00;;;;;;5028877;28;20036;-70
2021/10/20 00:55:43;;;;;;;4.68;3.58;;;11.20;94.00;;;;;;5030570;28;20031;-69
2021/10/20 00:58:10;;;;;;;3.88;3.03;;;11.20;94.00;;;;;;5031109;28;20030;-68
2021/10/20 01:00:35;;;;;;;4.93;3.67;;;11.10;94.00;;;;;;5029801;28;20068;-68
2021/10/20 01:03:01;;;;;;;4.55;3.35;;;11.10;94.00;;;;;;5029187;28;20423;-68
2021/10/20 01:05:27;;;;;;;5.15;3.80;;;11.00;94.10;;;;;;5028854;28;20030;-69
2021/10/20 01:07:53;;;;;;;5.55;3.83;;;11.00;94.10;;;;;;5030448;28;20100;-69
2021/10/20 01:10:19;;;;;;;5.80;3.92;;;11.00;94.10;;;;;;5030256;28;20033;-69
2021/10/20 01:12:44;;;;;;;7.07;4.35;;;11.00;94.20;;;;;;5029421;28;20048;-69
2021/10/20 01:15:19;;;;;;;5.72;4.38;;;10.90;94.20;;;;;;5029035;28;20029;-70
2021/10/20 01:17:47;;;;;;;5.47;4.32;;;10.90;94.20;;;;;;5030710;28;20421;-69
2021/10/20 01:20:13;;;;;;;7.82;4.68;;;10.90;94.30;;;;;;5029303;28;20032;-69
2021/10/20 01:22:39;;;;;;;5.85;4.05;;;10.80;94.30;;;;;;5029190;28;20366;-69
2021/10/20 01:25:06;;;;;;;5.03;4.28;;;10.80;94.20;;;;;;5029807;28;20104;-68
2021/10/20 01:27:32;;;;;;;6.35;4.25;;;10.80;94.30;;;;;;5019312;28;20025;-68
2021/10/20 01:29:58;;;;;;;6.07;4.20;;;10.70;94.30;;;;;;5029138;28;20028;-69
2021/10/20 01:32:26;;;;;;;4.55;3.97;;;10.70;94.40;;;;;;5018034;28;20482;-69
2021/10/20 01:34:53;;;;;;;5.43;4.32;;;10.70;94.40;;;;;;5027434;28;20026;-69
2021/10/20 01:37:21;;;;;;;4.43;3.72;;;10.60;94.40;;;;;;5030084;28;20112;-70
2021/10/20 01:39:47;;;;;;;5.47;4.22;;;10.60;94.40;;;;;;5029913;28;20022;-70
2021/10/20 01:42:12;;;;;;;5.93;4.40;;;10.50;94.30;;;;;;5025541;28;20025;-69
2021/10/20 01:44:38;;;;;;;7.50;4.72;;;10.50;94.40;;;;;;5021285;28;20034;-69
2021/10/20 01:47:04;;;;;;;5.00;4.10;;;10.50;94.40;;;;;;5025620;28;20289;-69
2021/10/20 01:49:31;;;;;;;5.38;3.88;;;10.40;94.50;;;;;;5029855;28;20029;-69
2021/10/20 01:51:56;;;;;;;6.63;3.63;;;10.40;94.50;;;;;;5029298;28;20092;-68
2021/10/20 01:54:22;;;;;;;6.28;3.70;;;10.40;94.50;;;;;;5028147;28;20041;-69
2021/10/20 01:56:48;;;;;;;4.63;3.65;;;10.40;94.50;;;;;;5029660;28;20049;-69
2021/10/20 01:59:14;;;;;;;6.75;3.80;;;10.40;94.50;;;;;;5029291;28;20056;-70
2021/10/20 02:01:40;;;;;;;4.38;3.50;;;10.30;94.50;;;;;;5017343;28;20028;-69
2021/10/20 02:04:13;;;;;;;4.85;3.50;;;10.30;94.50;;;;;;5018329;23;22348;-65
2021/10/20 02:06:41;;;;;;;5.00;2.95;;;10.30;94.40;;;;;;4976351;28;20062;-67
2021/10/20 02:09:07;;;;;;;4.43;3.40;;;10.20;94.40;;;;;;4987346;28;20049;-66
2021/10/20 02:11:34;;;;;;;4.32;3.45;;;10.10;94.40;;;;;;4989199;28;20031;-66
2021/10/20 02:14:01;;;;;;;5.65;3.00;;;10.10;94.40;;;;;;4982421;28;20022;-66
2021/10/20 02:16:27;;;;;;;6.05;2.92;;;10.00;94.40;;;;;;4979552;28;20057;-66
2021/10/20 02:18:54;;;;;;;3.78;2.95;;;10.00;94.40;;;;;;4989603;28;20486;-67
2021/10/20 02:21:20;;;;;;;4.07;2.67;;;10.00;94.50;;;;;;4984724;28;20019;-65
2021/10/20 02:23:45;;;;;;;4.60;2.70;;;9.90;94.40;;;;;;4960392;28;20081;-66
2021/10/20 02:26:11;;;;;;;3.28;2.97;;;9.90;94.50;;;;;;4990742;28;20050;-67
2021/10/20 02:28:36;;;;;;;3.63;2.60;;;9.80;94.50;;;;;;4986860;28;20088;-69
2021/10/20 02:31:02;;;;;;;3.67;2.58;;;9.80;94.50;;;;;;4976677;28;20117;-66
2021/10/20 02:33:28;;;;;;;4.45;2.88;;;9.80;94.50;;;;;;4986588;28;20058;-66
2021/10/20 02:35:53;;;;;;;5.65;2.50;;;9.70;94.50;;;;;;4986586;28;20033;-65
2021/10/20 02:38:19;;;;;;;3.75;2.50;;;9.70;94.50;;;;;;4989612;28;20035;-66
2021/10/20 02:40:45;;;;;;;3.53;2.70;;;9.70;94.50;;;;;;4993692;28;20110;-66
2021/10/20 02:43:10;;;;;;;3.70;2.55;;;9.60;94.50;;;;;;4982495;28;20030;-65
2021/10/20 02:45:36;;;;;;;3.78;2.95;;;9.60;94.50;;;;;;4985336;28;20034;-66
2021/10/20 02:48:02;;;;;;;3.88;2.88;;;9.50;94.50;;;;;;4985188;28;20034;-66
2021/10/20 02:50:29;;;;;;;2.78;2.47;;;9.50;94.50;;;;;;4993139;28;20544;-67
2021/10/20 02:52:56;;;;;;;3.88;2.75;;;9.50;94.50;;;;;;4991415;28;20026;-67
2021/10/20 02:55:22;;;;;;;3.17;2.58;;;9.50;94.50;;;;;;4986458;28;20027;-66
2021/10/20 02:57:47;;;;;;;2.55;2.35;;;9.40;94.50;;;;;;4994305;28;20042;-66
2021/10/20 03:00:13;;;;;;;3.85;2.63;;;9.40;94.50;;;;;;4994072;28;20022;-67
2021/10/20 03:02:39;;;;;;;4.13;2.90;;;9.40;94.50;;;;;;4992406;28;20032;-64
2021/10/20 03:05:05;;;;;;;3.22;2.75;;;9.40;94.50;;;;;;4980497;28;20343;-66
2021/10/20 03:07:32;;;;;;;4.15;2.72;;;9.40;94.50;;;;;;4981335;28;20050;-66
2021/10/20 03:09:58;;;;;;;3.90;2.47;;;9.40;94.60;;;;;;4992890;28;20027;-65
2021/10/20 03:12:24;;;;;;;3.15;2.50;;;9.30;94.60;;;;;;4993137;28;20034;-65
2021/10/20 03:14:49;;;;;;;2.63;2.35;;;9.30;94.60;;;;;;4991470;28;20533;-65
2021/10/20 03:17:16;;;;;;;3.25;2.67;;;9.30;94.60;;;;;;4984597;28;20026;-66
2021/10/20 03:19:43;;;;;;;3.05;2.75;;;9.30;94.60;;;;;;4993316;28;20037;-66
2021/10/20 03:22:08;;;;;;;3.58;2.60;;;9.30;94.60;;;;;;4993425;28;20495;-65
2021/10/20 03:24:34;;;;;;;2.92;2.60;;;9.30;94.50;;;;;;4992058;28;20030;-65
2021/10/20 03:27:01;;;;;;;3.00;2.70;;;9.20;94.50;;;;;;4993550;28;20045;-65
2021/10/20 03:29:26;;;;;;;3.38;2.50;;;9.20;94.50;;;;;;4993347;28;20038;-66
2021/10/20 03:31:52;;;;;;;3.72;2.80;;;9.10;94.70;;;;;;4993013;28;20042;-65
2021/10/20 03:34:17;;;;;;;4.38;3.10;;;9.00;94.50;;;;;;4992145;28;20041;-66
2021/10/20 03:36:43;;;;;;;3.40;2.67;;;9.00;94.60;;;;;;4993268;28;20026;-66
2021/10/20 03:39:09;;;;;;;5.57;2.92;;;8.90;94.50;;;;;;4991258;28;20037;-65
2021/10/20 03:41:34;;;;;;;5.50;3.10;;;8.90;94.80;;;;;;4993066;28;20045;-66
2021/10/20 03:44:00;;;;;;;4.13;2.92;;;8.80;94.60;;;;;;4991446;28;20479;-65
2021/10/20 03:46:25;;;;;;;3.80;3.00;;;8.80;94.60;;;;;;4983770;28;20561;-65
2021/10/20 03:48:51;;;;;;;3.55;2.65;;;8.70;94.60;;;;;;4986036;28;20026;-66
2021/10/20 03:51:17;;;;;;;3.92;2.88;;;8.70;94.70;;;;;;4989407;28;20068;-64
2021/10/20 03:53:42;;;;;;;4.35;2.85;;;8.70;94.80;;;;;;4986075;28;20442;-66
2021/10/20 03:56:08;;;;;;;4.22;2.88;;;8.70;94.70;;;;;;4985493;28;22031;-66
2021/10/20 03:58:33;;;;;;;4.22;3.00;;;8.70;94.70;;;;;;4991769;28;20478;-66
2021/10/20 04:00:59;;;;;;;3.45;2.42;;;8.70;94.70;;;;;;4992714;28;20031;-65
2021/10/20 04:03:24;;;;;;;4.88;2.80;;;8.70;94.70;;;;;;4992044;28;20102;-65
2021/10/20 04:05:50;;;;;;;3.10;2.80;;;8.70;94.80;;;;;;4991979;28;20033;-66
2021/10/20 04:08:16;;;;;;;3.50;2.70;;;8.70;94.80;;;;;;4992080;28;20070;-65
2021/10/20 04:10:41;;;;;;;4.13;2.65;;;8.70;95.00;;;;;;4991936;28;20056;-66
2021/10/20 04:13:08;;;;;;;3.22;2.58;;;8.70;94.80;;;;;;4991712;28;20466;-65
2021/10/20 04:15:33;;;;;;;3.35;2.65;;;8.70;94.80;;;;;;4990075;28;20026;-66
2021/10/20 04:17:59;;;;;;;3.83;2.60;;;8.70;94.80;;;;;;4991065;28;20482;-66
2021/10/20 04:20:25;;;;;;;4.10;2.42;;;8.70;94.80;;;;;;4992333;28;20026;-66
2021/10/20 04:22:51;;;;;;;3.88;2.72;;;8.70;94.80;;;;;;4990336;28;20374;-66
2021/10/20 04:25:18;;;;;;;3.28;2.60;;;8.70;94.80;;;;;;4991144;28;20125;-65
2021/10/20 04:27:45;;;;;;;3.67;2.60;;;8.60;94.80;;;;;;4989555;28;20041;-66
2021/10/20 04:30:12;;;;;;;6.18;3.80;;;8.60;94.80;;;;;;4975937;28;20406;-66
2021/10/20 04:32:38;;;;;;;3.35;2.63;;;8.60;94.80;;;;;;4991099;28;20100;-65
2021/10/20 04:35:05;;;;;;;2.53;2.33;;;8.60;94.80;;;;;;4992179;28;20034;-66
2021/10/20 04:37:33;;;;;;;2.83;2.38;;;8.50;94.80;;;;;;4990110;28;20026;-66
2021/10/20 04:39:59;;;;;;;3.45;2.72;;;8.60;94.80;;;;;;4991979;28;20026;-66
2021/10/20 04:42:29;;;;;;;3.42;2.50;;;8.50;94.80;;;;;;4990405;28;20471;-65
2021/10/20 04:44:55;;;;;;;3.53;2.60;;;8.50;94.80;;;;;;4990188;28;20035;-65
2021/10/20 04:47:21;;;;;;;4.47;2.67;;;8.50;94.80;;;;;;4991267;28;20041;-65
2021/10/20 04:49:48;;;;;;;2.90;2.60;;;8.50;94.80;;;;;;4991066;28;20110;-64
2021/10/20 04:52:14;;;;;;;5.80;2.60;;;8.40;94.80;;;;;;4990328;28;20049;-66
2021/10/20 04:54:40;;;;;;;4.38;2.90;;;8.40;94.80;;;;;;4989849;28;20152;-66
2021/10/20 04:57:06;;;;;;;5.22;2.92;;;8.40;94.80;;;;;;4990740;28;20634;-66
2021/10/20 04:59:33;;;;;;;4.32;2.45;;;8.40;94.90;;;;;;4974314;28;20041;-66
2021/10/20 05:01:59;;;;;;;3.47;2.65;;;8.40;94.90;;;;;;4991192;28;20394;-66
2021/10/20 05:04:25;;;;;;;4.32;2.92;;;8.40;94.90;;;;;;4990840;28;20467;-65
2021/10/20 05:06:51;;;;;;;4.38;3.15;;;8.30;94.90;;;;;;4991121;28;20101;-65
2021/10/20 05:09:16;;;;;;;3.08;2.53;;;8.30;94.80;;;;;;4991082;28;20039;-66
2021/10/20 05:11:42;;;;;;;3.28;2.63;;;8.30;94.90;;;;;;4973515;28;20116;-65
2021/10/20 05:14:07;;;;;;;3.20;2.90;;;8.30;94.80;;;;;;4979506;28;20065;-66
2021/10/20 05:16:33;;;;;;;2.67;2.47;;;8.30;94.80;;;;;;4986842;28;20052;-65
2021/10/20 05:18:59;;;;;;;3.72;2.72;;;8.30;94.80;;;;;;4986303;28;20038;-65
2021/10/20 05:21:24;;;;;;;5.93;2.63;;;8.30;94.90;;;;;;4990608;28;20030;-66
2021/10/20 05:23:51;;;;;;;5.75;2.80;;;8.30;94.80;;;;;;4990443;28;20509;-67
2021/10/20 05:26:17;;;;;;;3.78;2.72;;;8.30;94.90;;;;;;4989401;28;20050;-66
2021/10/20 05:28:43;;;;;;;7.07;2.92;;;8.30;94.90;;;;;;4990800;28;20502;-68
2021/10/20 05:31:09;;;;;;;3.13;2.50;;;8.20;94.90;;;;;;4973485;28;20108;-64
2021/10/20 05:33:35;;;;;;;3.80;2.97;;;8.20;94.90;;;;;;4979234;28;20037;-66
2021/10/20 05:36:00;;;;;;;6.15;2.65;;;8.20;95.00;;;;;;4991708;28;20038;-66
2021/10/20 05:38:26;;;;;;;3.25;2.70;;;8.20;95.00;;;;;;4990763;28;20417;-66
2021/10/20 05:40:51;;;;;;;3.30;2.97;;;8.20;95.00;;;;;;4990719;28;20027;-66
2021/10/20 05:43:19;;;;;;;4.28;2.85;;;8.30;95.00;;;;;;4990161;28;20085;-67
2021/10/20 05:45:45;;;;;;;3.28;2.97;;;8.30;95.00;;;;;;4985716;28;20390;-67
2021/10/20 05:48:10;;;;;;;3.47;3.00;;;8.20;95.00;;;;;;4986651;28;20433;-66
2021/10/20 05:50:36;;;;;;;2.92;2.65;;;8.20;94.90;;;;;;4977483;28;20039;-66
2021/10/20 05:53:01;;;;;;;3.30;3.00;;;8.20;95.00;;;;;;4984055;28;20034;-65
2021/10/20 05:55:27;;;;;;;3.42;3.03;;;8.20;95.00;;;;;;4979094;28;20062;-67
2021/10/20 05:57:52;;;;;;;4.85;2.80;;;8.20;95.10;;;;;;4983173;28;20031;-66
2021/10/20 06:00:18;;;;;;;4.03;2.78;;;8.20;95.00;;;;;;4987149;28;20030;-66
2021/10/20 06:02:44;;;;;;;4.95;2.47;;;8.20;95.00;;;;;;4988757;28;20026;-64
2021/10/20 06:05:09;;;;;;;5.47;3.10;;;8.10;95.00;;;;;;4989513;28;20380;-66
2021/10/20 06:07:40;;;;;;;4.78;3.42;;;8.10;95.00;;;;;;4990730;28;20034;-65
2021/10/20 06:10:06;;;;;;;4.60;2.88;;;8.10;95.10;;;;;;4991135;28;20015;-66
2021/10/20 06:12:31;;;;;;;4.35;3.30;;;8.10;95.10;;;;;;4990773;28;20038;-63
2021/10/20 06:14:57;;;;;;;4.65;3.10;;;8.10;95.10;;;;;;4991772;28;20050;-66
2021/10/20 06:17:22;;;;;;;3.28;2.83;;;8.10;95.10;;;;;;4990182;28;20030;-69
2021/10/20 06:19:48;;;;;;;3.38;2.90;;;8.10;95.10;;;;;;4992515;28;20031;-66
2021/10/20 06:22:15;;;;;;;3.88;3.03;;;8.10;95.20;;;;;;4991993;28;20061;-66
2021/10/20 06:24:41;;;;;;;4.30;2.83;;;8.20;95.20;;;;;;4992114;28;20022;-66
2021/10/20 06:27:07;;;;;;;6.00;3.25;;;8.30;95.20;;;;;;4994077;28;20030;-64
2021/10/20 06:29:32;;;;;;;16.27;8.43;;;8.60;95.10;;;;;;4982825;28;20041;-64
2021/10/20 06:31:58;;;;;;;3.83;3.03;;;9.00;94.70;;;;;;4993491;28;20026;-66
2021/10/20 06:34:23;;;;;;;2.95;2.65;;;9.30;94.40;;;;;;4989761;28;20030;-66
2021/10/20 06:36:49;;;;;;;4.50;2.53;;;9.60;94.30;;;;;;4994245;28;20104;-65
2021/10/20 06:39:20;;;;;;;3.28;2.75;;;9.50;94.40;;;;;;4994369;28;20030;-66
2021/10/20 06:41:47;;;;;;;6.20;2.95;;;9.50;94.50;;;;;;4992651;28;20029;-65
2021/10/20 06:44:12;;;;;;;4.95;3.25;;;9.80;94.40;;;;;;4993275;28;20464;-65
2021/10/20 06:46:38;;;;;;;3.45;3.13;;;10.20;94.10;;;;;;4986155;28;20038;-65
2021/10/20 06:49:03;;;;;;;3.85;3.08;;;10.60;93.70;;;;;;4993571;28;20026;-66
2021/10/20 06:51:29;;;;;;;4.93;3.10;;;10.90;93.40;;;;;;4993127;28;20041;-63
2021/10/20 06:53:55;;;;;;;3.90;2.90;;;11.10;93.30;;;;;;4973053;28;20631;-66
2021/10/20 06:56:21;;;;;;;3.22;2.53;;;11.00;93.40;;;;;;4989229;28;20026;-66
2021/10/20 06:58:46;;;;;;;7.05;2.97;;;11.20;93.30;;;;;;4974519;28;20093;-66
2021/10/20 07:01:12;;;;;;;7.30;4.53;;;11.60;92.90;;;;;;4984444;28;20061;-65
2021/10/20 07:03:37;;;;;;;24.00;10.57;;;12.00;92.50;;;;;;4994526;28;20036;-64
2021/10/20 07:06:03;;;;;;;13.05;6.15;;;12.40;92.10;;;;;;4982677;28;20030;-64
2021/10/20 07:08:28;;;;;;;11.70;5.38;;;12.80;91.70;;;;;;4992895;28;20470;-65
2021/10/20 07:10:54;;;;;;;6.80;4.07;;;13.00;91.40;;;;;;4983289;28;20157;-65
2021/10/20 07:13:20;;;;;;;4.07;2.75;;;13.20;91.30;;;;;;4986194;28;20034;-65
2021/10/20 07:15:47;;;;;;;5.15;3.03;;;13.50;91.00;;;;;;4990427;28;20046;-65
2021/10/20 07:18:13;;;;;;;4.90;3.10;;;13.90;90.60;;;;;;4974123;28;20163;-66
2021/10/20 07:20:39;;;;;;;3.53;2.50;;;14.20;90.30;;;;;;4985570;28;20042;-66
2021/10/20 07:23:05;;;;;;;3.53;2.50;;;14.60;90.10;;;;;;4986527;28;20112;-66
2021/10/20 07:25:30;;;;;;;3.75;3.00;;;14.80;89.80;;;;;;4987513;28;20062;-65
2021/10/20 07:27:56;;;;;;;3.85;2.72;;;15.00;89.70;;;;;;4981789;28;20050;-67
2021/10/20 07:30:21;;;;;;;3.05;2.45;;;15.20;89.90;;;;;;4991495;28;20034;-66
2021/10/20 07:32:47;;;;;;;3.70;2.90;;;15.50;89.30;;;;;;4991444;28;20026;-66
2021/10/20 07:35:15;;;;;;;3.85;3.13;;;15.80;89.00;;;;;;4993422;28;20106;-65
2021/10/20 07:37:42;;;;;;;6.88;4.10;;;15.90;88.50;;;;;;4973169;28;20035;-65
2021/10/20 07:40:09;;;;;;;5.35;3.58;;;16.00;88.50;;;;;;4991692;28;20532;-66
2021/10/20 07:42:37;;;;;;;4.28;3.20;;;16.10;88.50;;;;;;4991530;28;20486;-65
2021/10/20 07:45:08;;;;;;;3.90;2.80;;;16.00;88.30;;;;;;4991286;28;20026;-67
2021/10/20 07:47:34;;;;;;;4.35;2.40;;;15.80;88.70;;;;;;4991785;28;20022;-67
2021/10/20 07:49:59;;;;;;;4.05;2.60;;;15.70;89.70;;;;;;4991661;28;20025;-66
2021/10/20 07:52:28;;;;;;;6.20;2.65;;;15.50;89.50;;;;;;4974538;28;20077;-65
2021/10/20 07:54:54;;;;;;;5.40;3.03;;;15.40;89.70;;;;;;4973033;28;20042;-67
2021/10/20 07:57:19;;;;;;;3.67;3.30;;;15.40;90.00;;;;;;4991716;28;20069;-67
2021/10/20 07:59:45;;;;;;;5.95;4.38;;;15.40;89.60;;;;;;4992231;28;20467;-66
2021/10/20 08:02:11;;;;;;;4.13;2.53;;;15.40;89.60;;;;;;4991813;28;20026;-66
2021/10/20 08:04:36;;;;;;;2.90;2.22;;;15.30;89.10;;;;;;4989096;28;20045;-66
2021/10/20 08:09:30;;;;;;;3.20;2.30;;;15.30;89.00;;;;;;4990799;28;20062;-66
2021/10/20 08:11:55;;;;;;;4.10;3.03;;;15.20;88.80;;;;;;4995530;28;20474;-66
2021/10/20 08:14:21;;;;;;;4.28;3.30;;;15.20;88.90;;;;;;4993239;28;20072;-65
2021/10/20 08:16:46;;;;;;;4.75;3.47;;;15.30;88.80;;;;;;4993337;28;20063;-66
2021/10/20 08:19:12;;;;;;;6.78;3.63;;;15.30;88.60;;;;;;4990847;28;20035;-66
2021/10/20 08:21:38;;;;;;;5.28;2.95;;;15.30;88.20;;;;;;4993762;28;20023;-66
2021/10/20 08:24:03;;;;;;;5.88;3.90;;;15.50;88.20;;;;;;4994222;28;20027;-66
2021/10/20 08:26:29;;;;;;;4.97;3.28;;;15.50;87.80;;;;;;4992816;28;20048;-66
2021/10/20 08:28:55;;;;;;;2.85;2.28;;;15.60;87.60;;;;;;4974267;28;20494;-66
2021/10/20 08:31:21;;;;;;;3.33;2.50;;;15.60;87.40;;;;;;4992431;28;20026;-67
2021/10/20 08:33:46;;;;;;;4.72;2.53;;;15.70;87.00;;;;;;4991021;28;20038;-66
2021/10/20 08:36:12;;;;;;;4.28;2.78;;;15.60;87.00;;;;;;4995419;28;20038;-66
2021/10/20 08:38:38;;;;;;;2.45;1.73;;;15.70;86.80;;;;;;4989808;28;20038;-66
2021/10/20 08:41:04;;;;;;;2.42;1.95;;;15.90;87.10;;;;;;4991013;28;20092;-67
2021/10/20 08:43:30;;;;;;;2.83;2.03;;;16.20;87.00;;;;;;4995071;28;20501;-65
2021/10/20 08:45:55;;;;;;;6.22;2.00;;;16.30;86.10;;;;;;4998018;28;20037;-67
2021/10/20 08:48:22;;;;;;;2.20;1.48;;;16.30;85.70;;;;;;4975782;28;20042;-66
2021/10/20 08:50:53;;;;;;;4.03;2.00;;;16.30;85.50;;;;;;4992586;28;20028;-66
2021/10/20 08:53:20;;;;;;;3.92;1.90;;;16.20;85.10;;;;;;4993791;28;20532;-67
2021/10/20 08:55:47;;;;;;;7.03;1.90;;;16.10;85.20;;;;;;4998924;28;20026;-67
2021/10/20 08:58:13;;;;;;;2.05;1.90;;;16.00;85.00;;;;;;4995507;28;20026;-67
2021/10/20 09:00:39;;;;;;;2.50;2.10;;;15.90;85.10;;;;;;4990468;28;20034;-67
2021/10/20 09:03:04;;;;;;;1.63;1.52;;;15.80;85.10;;;;;;4999258;28;20030;-66
2021/10/20 09:05:30;;;;;;;3.28;1.92;;;15.70;85.30;;;;;;5000889;28;20029;-68
2021/10/20 09:07:57;;;;;;;2.00;1.85;;;15.70;85.50;;;;;;4999068;28;20034;-67
2021/10/20 09:10:24;;;;;;;5.07;2.28;;;15.70;85.70;;;;;;4975539;28;20486;-66
2021/10/20 09:12:50;;;;;;;2.45;2.03;;;15.70;85.90;;;;;;4973850;28;20022;-67
2021/10/20 09:15:22;;;;;;;2.17;1.55;;;15.80;85.90;;;;;;4996114;28;20030;-67
2021/10/20 09:17:52;;;;;;;2.80;1.95;;;15.80;85.80;;;;;;4994716;28;20157;-67
2021/10/20 09:20:27;;;;;;;3.80;2.28;;;15.90;86.00;;;;;;4985433;28;20127;-67
2021/10/20 09:23:02;;;;;;;2.20;2.00;;;15.90;85.70;;;;;;4990939;28;20513;-67
2021/10/20 09:25:52;;;;;;;2.05;1.80;;;16.10;85.40;;;;;;4995266;28;20487;-67
2021/10/20 09:28:31;;;;;;;2.28;2.08;;;16.30;85.20;;;;;;4991037;28;20050;-68
2021/10/20 09:30:57;;;;;;;3.03;1.80;;;16.50;85.10;;;;;;4990187;28;20022;-67
2021/10/20 09:33:24;;;;;;;4.00;1.88;;;16.70;85.20;;;;;;4993274;28;20060;-67
2021/10/20 09:35:50;;;;;;;2.72;1.80;;;16.80;85.00;;;;;;4995053;28;20054;-65
2021/10/20 09:38:16;;;;;;;3.85;1.80;;;17.00;84.40;;;;;;4989785;28;20069;-67
2021/10/20 09:40:44;;;;;;;3.80;1.60;;;17.20;83.50;;;;;;4996039;28;20031;-65
2021/10/20 09:43:14;;;;;;;7.45;2.20;;;17.30;82.90;;;;;;4987525;28;20446;-66
2021/10/20 09:45:41;;;;;;;1.80;1.65;;;17.40;82.30;;;;;;4992632;28;20031;-66
2021/10/20 09:48:13;;;;;;;4.43;2.78;;;17.50;82.20;;;;;;4993178;28;20046;-67
2021/10/20 09:51:08;;;;;;;3.83;2.03;;;17.60;81.90;;;;;;4993435;28;20037;-67
2021/10/20 09:53:39;;;;;;;1.98;1.50;;;17.60;81.60;;;;;;4996294;28;20042;-67
2021/10/20 09:56:27;;;;;;;3.47;2.00;;;17.70;81.50;;;;;;4994968;28;20033;-66
2021/10/20 09:58:53;;;;;;;2.42;1.70;;;17.70;81.20;;;;;;4994202;28;20022;-67
2021/10/20 10:01:24;;;;;;;3.42;1.92;;;17.70;81.60;;;;;;4994919;28;20061;-67
2021/10/20 10:03:51;;;;;;;1.52;1.40;;;17.70;81.20;;;;;;4976710;28;20088;-66
2021/10/20 10:06:17;;;;;;;2.15;1.63;;;17.80;81.30;;;;;;4977622;28;20455;-66
2021/10/20 10:08:44;;;;;;;2.55;1.70;;;17.90;81.40;;;;;;4998651;28;20390;-67
2021/10/20 10:11:10;;;;;;;2.17;1.58;;;17.90;80.70;;;;;;4999379;28;20343;-67
2021/10/20 10:13:45;;;;;;;1.80;1.70;;;18.00;80.50;;;;;;4997347;28;20042;-67
2021/10/20 10:16:11;;;;;;;2.35;1.65;;;18.10;80.20;;;;;;4995485;28;20113;-67
2021/10/20 10:18:41;;;;;;;1.45;1.35;;;18.10;80.10;;;;;;4997503;28;20019;-68
2021/10/20 10:21:37;;;;;;;3.15;1.50;;;18.20;80.10;;;;;;4997453;28;20022;-66
2021/10/20 10:24:11;;;;;;;3.00;2.05;;;18.30;79.90;;;;;;4996514;28;20109;-66
2021/10/20 10:26:56;;;;;;;4.00;1.67;;;18.40;79.90;;;;;;4991472;28;20020;-67
2021/10/20 10:29:22;;;;;;;1.77;1.63;;;18.50;79.90;;;;;;4991600;28;20036;-66
2021/10/20 10:31:51;;;;;;;3.13;1.70;;;18.50;79.80;;;;;;4992270;28;20030;-66
2021/10/20 10:34:42;;;;;;;3.22;1.75;;;18.60;79.50;;;;;;4979620;28;20041;-67
2021/10/20 10:37:08;;;;;;;3.85;1.98;;;18.60;79.00;;;;;;4992451;28;20106;-67
2021/10/20 10:39:34;;;;;;;3.33;1.80;;;18.70;79.70;;;;;;4993852;28;20034;-66
2021/10/20 10:42:02;;;;;;;1.63;1.45;;;18.70;79.70;;;;;;5000062;28;20041;-66
2021/10/20 10:44:43;;;;;;;3.17;2.10;;;18.70;79.10;;;;;;4997178;28;20099;-67
2021/10/20 10:47:19;;;;;;;2.30;1.83;;;18.80;79.00;;;;;;4978532;28;20022;-66
2021/10/20 10:49:56;;;;;;;2.22;1.60;;;18.90;78.80;;;;;;4993950;28;20454;-67
2021/10/20 10:52:33;;;;;;;2.88;1.65;;;18.90;78.50;;;;;;4993337;28;20038;-67
2021/10/20 10:55:17;;;;;;;2.67;1.70;;;18.90;78.30;;;;;;4987467;28;20031;-66
2021/10/20 10:58:08;;;;;;;1.90;1.80;;;18.90;78.40;;;;;;4994131;28;20033;-68
2021/10/20 11:00:35;;;;;;;1.45;1.33;;;18.90;78.40;;;;;;4992068;28;20030;-66
2021/10/20 11:03:09;;;;;;;2.17;1.90;;;18.90;78.70;;;;;;4999031;28;20118;-66
2021/10/20 11:05:35;;;;;;;1.55;1.35;;;18.90;78.50;;;;;;4984246;28;20117;-67
2021/10/20 11:08:09;;;;;;;3.15;1.50;;;18.90;78.60;;;;;;4993585;28;20045;-66
2021/10/20 11:10:37;;;;;;;2.58;1.70;;;18.90;77.60;;;;;;4976363;28;20092;-67
2021/10/20 11:13:04;;;;;;;10.52;1.42;;;19.00;77.20;;;;;;4991873;28;20031;-67
2021/10/20 11:15:31;;;;;;;1.50;1.35;;;19.00;77.30;;;;;;4993332;28;20045;-67
2021/10/20 11:17:57;;;;;;;2.10;1.45;;;19.10;77.30;;;;;;4977990;28;20457;-67
2021/10/20 11:20:26;;;;;;;2.30;1.70;;;19.10;77.30;;;;;;4996872;28;20501;-67
2021/10/20 11:23:00;;;;;;;1.67;1.40;;;19.20;77.00;;;;;;4997405;28;20046;-67
2021/10/20 11:25:25;;;;;;;1.50;1.40;;;19.20;76.60;;;;;;4990717;28;20049;-65
2021/10/20 11:27:52;;;;;;;1.52;1.42;;;19.30;77.20;;;;;;4993871;28;20054;-64
2021/10/20 11:30:21;;;;;;;1.80;1.70;;;19.40;76.40;;;;;;5000700;28;20092;-64
2021/10/20 11:32:46;;;;;;;2.35;1.42;;;19.40;76.30;;;;;;4984488;28;20025;-63
2021/10/20 11:35:27;;;;;;;2.33;1.50;;;19.50;76.40;;;;;;4988129;28;20019;-64
2021/10/20 11:37:57;;;;;;;3.95;1.58;;;19.70;76.00;;;;;;4988301;28;20026;-62
2021/10/20 11:40:38;;;;;;;1.52;1.42;;;19.80;76.20;;;;;;4975744;28;20064;-68
2021/10/20 11:43:14;;;;;;;1.67;1.33;;;20.10;75.50;;;;;;4992451;28;20025;-66
2021/10/20 11:45:39;;;;;;;1.65;1.50;;;20.30;75.30;;;;;;5000799;28;20432;-67
2021/10/20 11:48:05;;;;;;;2.40;1.60;;;20.50;75.60;;;;;;4995533;28;20205;-65
2021/10/20 11:50:32;;;;;;;2.92;1.70;;;20.70;75.10;;;;;;4996013;28;20032;-67
2021/10/20 11:53:07;;;;;;;1.67;1.50;;;20.90;74.40;;;;;;4991161;28;20026;-67
2021/10/20 11:55:39;;;;;;;1.70;1.60;;;21.00;73.60;;;;;;4994646;28;20483;-67
2021/10/20 11:58:05;;;;;;;;;;;21.10;73.40;;;;;;4995513;28;20038;-66
2021/10/20 12:00:34;;;;;;;2.38;1.50;;;21.20;74.60;;;;;;4992893;28;19964;-68
2021/10/20 12:03:00;;;;;;;1.67;1.58;;;21.30;74.10;;;;;;4994100;28;20026;-65
2021/10/20 12:05:27;;;;;;;1.95;1.50;;;21.50;73.60;;;;;;4998902;28;20084;-67
2021/10/20 12:07:53;;;;;;;4.50;1.60;;;21.60;73.20;;;;;;4976486;28;20027;-65
2021/10/20 12:10:20;;;;;;;2.10;1.83;;;21.60;72.80;;;;;;4995194;28;20054;-65
2021/10/20 12:12:47;;;;;;;1.88;1.50;;;21.60;72.30;;;;;;4994389;28;20018;-68
2021/10/20 12:15:19;;;;;;;2.95;1.70;;;21.50;71.50;;;;;;4992581;28;20029;-67
2021/10/20 12:17:49;;;;;;;4.53;1.60;;;21.40;71.50;;;;;;4993206;28;20065;-67
2021/10/20 12:20:17;;;;;;;1.75;1.50;;;21.40;71.80;;;;;;4994455;28;20030;-68
2021/10/20 12:22:45;;;;;;;2.70;1.67;;;21.30;71.90;;;;;;5001310;28;20022;-69
2021/10/20 12:25:11;;;;;;;3.67;1.50;;;21.40;71.60;;;;;;4981048;28;20031;-69
2021/10/20 12:27:41;;;;;;;2.05;1.30;;;21.60;71.70;;;;;;4990279;28;20030;-68
2021/10/20 12:30:08;;;;;;;3.80;1.67;;;21.90;71.20;;;;;;4990502;28;20045;-69
2021/10/20 12:32:35;;;;;;;2.10;1.40;;;22.00;71.30;;;;;;4992966;28;20022;-68
2021/10/20 12:35:08;;;;;;;3.20;1.50;;;22.20;71.30;;;;;;4990002;28;20022;-68
2021/10/20 12:37:45;;;;;;;1.60;1.50;;;22.20;70.70;;;;;;4989205;28;20042;-68
2021/10/20 12:40:13;;;;;;;1.40;1.30;;;22.10;69.90;;;;;;4968829;28;20069;-68
2021/10/20 12:42:49;;;;;;;1.52;1.40;;;22.10;70.00;;;;;;4992399;28;20112;-68
2021/10/20 12:45:15;;;;;;;2.13;1.20;;;21.90;69.70;;;;;;4994850;28;20054;-68
2021/10/20 12:47:46;;;;;;;2.90;1.20;;;21.80;70.00;;;;;;4991713;28;20764;-68
2021/10/20 12:50:14;;;;;;;6.93;1.83;;;21.70;69.60;;;;;;4993964;28;20037;-68
2021/10/20 12:52:41;;;;;;;3.30;1.88;;;21.60;70.10;;;;;;4975740;28;20415;-68
2021/10/20 12:55:09;;;;;;;1.98;1.30;;;21.50;70.00;;;;;;4980316;28;20109;-68